Oakes, ND

2:01 AM CDT on April 25, 2018 (GMT -0500)
Oakes

Weather History for K2D5 - December, 2013

Change the Weather History Date:

Tuesday, December 17, 2013

  Actual Average (KP67) Record (KP67)
Temperature  
Mean Temperature 22 °F -  
Max Temperature 32 °F 21 °F 43 °F (1997)
Min Temperature 12 °F 7 °F 0 °F (1996)
Degree Days  
Heating Degree Days 43    
Moisture  
Dew Point 17 °F    
Average Humidity 79    
Maximum Humidity 93    
Minimum Humidity 68    
Precipitation  
Precipitation 0.00 in - - ()
Sea Level Pressure  
Sea Level Pressure 30.02 in    
Wind  
Wind Speed 18 mph (West)    
Max Wind Speed 25 mph    
Max Gust Speed 34 mph    
Visibility 10 miles    
Events      
Averages and records for this station are not official NWS values.
T = Trace of Precipitation, MM = Missing Value Source: NWS Daily Summary

Daily Weather History Graph

Daily Weather History Graph

Search for Another Location

Airport or City:

Astronomy

Dec. 17, 2013 Rise Set
Actual Time 8:09 AM CST 4:47 PM CST
Civil Twilight 7:34 AM CST 5:22 PM CST
Nautical Twilight 6:56 AM CST 6:00 PM CST
Astronomical Twilight 6:20 AM CST 6:36 PM CST
Moon 5:32 PM CST (12/17) 8:03 AM CST (12/17)
Length of Visible Light 9h 47m
Length of Day
8h 37m
Full, 100% of the Moon is Illuminated
Dec 17
Full
Dec 25
Last Quarter
Jan 1
New
Jan 7
First Quarter
Jan 15
Full

Hourly Weather History & Observations

Time (CST) Temp. Windchill Dew Point Humidity Pressure Visibility Wind Dir Wind Speed Gust Speed Precip Events Conditions
12:15 AM 32.0 °F 19.5 °F 26.6 °F 80% 29.94 in 10.0 mi West 21.9 mph - N/A   Mostly Cloudy
12:35 AM 32.0 °F 19.2 °F 26.6 °F 80% 29.94 in 10.0 mi WNW 23.0 mph 34.5 mph N/A   Mostly Cloudy
12:55 AM 30.2 °F 16.8 °F 24.8 °F 80% 29.94 in 10.0 mi WNW 23.0 mph 31.1 mph N/A   Partly Cloudy
1:15 AM 30.2 °F 17.1 °F 24.8 °F 80% 29.95 in 10.0 mi WNW 21.9 mph 27.6 mph N/A   Clear
1:35 AM 28.4 °F 16.2 °F 23.0 °F 80% 29.95 in 10.0 mi WNW 17.3 mph 26.5 mph N/A   Clear
1:55 AM 26.6 °F 14.3 °F 23.0 °F 86% 29.96 in 10.0 mi WNW 16.1 mph 20.7 mph N/A   Clear
2:15 AM 28.4 °F 15.4 °F 23.0 °F 80% 29.96 in 10.0 mi WNW 19.6 mph - N/A   Clear
2:35 AM 26.6 °F 13.1 °F 23.0 °F 86% 29.97 in 10.0 mi WNW 19.6 mph 25.3 mph N/A   Clear
2:55 AM 28.4 °F 14.7 °F 23.0 °F 80% 29.98 in 10.0 mi West 21.9 mph 31.1 mph N/A   Clear
3:15 AM 28.4 °F 14.4 °F 23.0 °F 80% 29.98 in 10.0 mi WNW 23.0 mph 28.8 mph N/A   Clear
3:35 AM 26.6 °F 11.4 °F 21.2 °F 80% 29.99 in 10.0 mi WNW 25.3 mph 29.9 mph N/A   Clear
3:55 AM 26.6 °F 12.4 °F 19.4 °F 74% 30.00 in 10.0 mi WNW 21.9 mph 28.8 mph N/A   Clear
4:15 AM 26.6 °F 12.7 °F 19.4 °F 74% 30.00 in 10.0 mi WNW 20.7 mph 27.6 mph N/A   Clear
4:35 AM 24.8 °F 10.0 °F 17.6 °F 74% 30.01 in 10.0 mi West 21.9 mph - N/A   Clear
4:55 AM 24.8 °F 10.7 °F 17.6 °F 74% 30.01 in 10.0 mi WNW 19.6 mph - N/A   Clear
5:15 AM 24.8 °F 10.7 °F 17.6 °F 74% 30.01 in 10.0 mi WNW 19.6 mph 28.8 mph N/A   Clear
5:35 AM 24.8 °F 10.3 °F 17.6 °F 74% 30.01 in 10.0 mi WNW 20.7 mph 25.3 mph N/A   Clear
5:55 AM 24.8 °F 9.0 °F 17.6 °F 74% 30.02 in 10.0 mi WNW 25.3 mph 31.1 mph N/A   Clear
6:15 AM 23.0 °F 8.0 °F 17.6 °F 80% 30.02 in 10.0 mi WNW 20.7 mph 28.8 mph N/A   Clear
6:35 AM 23.0 °F 8.0 °F 17.6 °F 80% 30.03 in 10.0 mi WNW 20.7 mph 26.5 mph N/A   Clear
6:55 AM 23.0 °F 7.2 °F 15.8 °F 74% 30.04 in 10.0 mi WNW 23.0 mph 28.8 mph N/A   Clear
7:15 AM 23.0 °F 8.7 °F 15.8 °F 74% 30.05 in 10.0 mi WNW 18.4 mph 25.3 mph N/A   Clear
7:35 AM 23.0 °F 9.2 °F 15.8 °F 74% 30.06 in 10.0 mi WNW 17.3 mph 24.2 mph N/A   Clear
7:55 AM 23.0 °F 9.2 °F 15.8 °F 74% 30.07 in 10.0 mi WNW 17.3 mph - N/A   Clear
8:15 AM 23.0 °F 8.3 °F 15.8 °F 74% 30.07 in 10.0 mi WNW 19.6 mph 24.2 mph N/A   Clear
8:35 AM 21.2 °F 6.8 °F 15.8 °F 80% 30.08 in 10.0 mi WNW 17.3 mph - N/A   Clear
8:55 AM 21.2 °F 6.8 °F 14.0 °F 74% 30.09 in 10.0 mi WNW 17.3 mph - N/A   Clear
9:15 AM 21.2 °F 6.8 °F 14.0 °F 74% 30.09 in 10.0 mi WNW 17.3 mph - N/A   Clear
9:35 AM 21.2 °F 6.8 °F 14.0 °F 74% 30.10 in 10.0 mi WNW 17.3 mph 23.0 mph N/A   Clear
9:55 AM 21.2 °F 7.8 °F 14.0 °F 74% 30.11 in 10.0 mi WNW 15.0 mph - N/A   Clear
10:15 AM 23.0 °F 9.6 °F 14.0 °F 68% 30.13 in 10.0 mi WNW 16.1 mph - N/A   Clear
10:35 AM 23.0 °F 9.6 °F 15.8 °F 74% 30.13 in 10.0 mi WNW 16.1 mph - N/A   Clear
10:55 AM 23.0 °F 9.6 °F 15.8 °F 74% 30.13 in 10.0 mi WNW 16.1 mph 20.7 mph N/A   Clear
11:15 AM 23.0 °F 10.1 °F 15.8 °F 74% 30.13 in 10.0 mi West 15.0 mph - N/A   Clear
11:35 AM 24.8 °F 11.1 °F 15.8 °F 69% 30.12 in 10.0 mi WNW 18.4 mph - N/A   Clear
11:55 AM 24.8 °F 11.5 °F 15.8 °F 69% 30.12 in 10.0 mi West 17.3 mph - N/A   Clear
12:15 PM 24.8 °F 11.5 °F 15.8 °F 69% 30.11 in 10.0 mi WNW 17.3 mph - N/A   Clear
12:35 PM 24.8 °F 10.7 °F 15.8 °F 69% 30.11 in 10.0 mi WNW 19.6 mph 25.3 mph N/A   Clear
12:55 PM 24.8 °F 11.9 °F 15.8 °F 69% 30.10 in 10.0 mi West 16.1 mph - N/A   Clear
1:15 PM 24.8 °F 11.9 °F 15.8 °F 69% 30.10 in 10.0 mi West 16.1 mph - N/A   Clear
1:35 PM 24.8 °F 11.5 °F 17.6 °F 74% 30.11 in 10.0 mi West 17.3 mph - N/A   Clear
1:55 PM 24.8 °F 11.5 °F 17.6 °F 74% 30.08 in 10.0 mi West 17.3 mph - N/A   Clear
2:15 PM 24.8 °F 12.4 °F 17.6 °F 74% 30.08 in 10.0 mi West 15.0 mph - N/A   Clear
2:35 PM 24.8 °F 14.6 °F 17.6 °F 74% 30.08 in 10.0 mi WSW 10.4 mph - N/A   Clear
2:55 PM 24.8 °F 13.4 °F 17.6 °F 74% 30.08 in 10.0 mi West 12.7 mph - N/A   Clear
3:15 PM 24.8 °F 14.0 °F 17.6 °F 74% 30.07 in 10.0 mi West 11.5 mph - N/A   Clear
3:35 PM 24.8 °F 15.3 °F 17.6 °F 74% 30.07 in 10.0 mi West 9.2 mph - N/A   Clear
3:55 PM 24.8 °F 16.1 °F 15.8 °F 69% 30.08 in 10.0 mi WSW 8.1 mph - N/A   Clear
4:15 PM 24.8 °F 14.6 °F 15.8 °F 69% 30.07 in 10.0 mi WSW 10.4 mph - N/A   Clear
4:35 PM 23.0 °F 15.8 °F 15.8 °F 74% 30.07 in 10.0 mi SSW 5.8 mph - N/A   Clear
4:55 PM 23.0 °F 14.7 °F 15.8 °F 74% 30.06 in 10.0 mi SW 6.9 mph - N/A   Clear
5:15 PM 21.2 °F 13.6 °F 15.8 °F 80% 30.06 in 10.0 mi SW 5.8 mph - N/A   Clear
5:35 PM 17.6 °F 8.2 °F 14.0 °F 86% 30.06 in 10.0 mi SSW 6.9 mph - N/A   Clear
5:55 PM 19.4 °F 10.4 °F 15.8 °F 86% 30.05 in 10.0 mi South 6.9 mph - N/A   Clear
6:15 PM 17.6 °F 8.2 °F 14.0 °F 86% 30.05 in 10.0 mi South 6.9 mph - N/A   Clear
6:35 PM 14.0 °F 2.0 °F 10.4 °F 86% 30.03 in 10.0 mi SSE 9.2 mph - N/A   Clear
6:55 PM 15.8 °F 5.1 °F 12.2 °F 86% 30.02 in 10.0 mi SE 8.1 mph - N/A   Clear
7:15 PM 14.0 °F 2.0 °F 12.2 °F 93% 30.01 in 10.0 mi SSE 9.2 mph - N/A   Clear
7:35 PM 12.2 °F 0.7 °F 10.4 °F 92% 30.01 in 10.0 mi South 8.1 mph - N/A   Clear
7:55 PM 12.2 °F 0.7 °F 10.4 °F 92% 29.99 in 10.0 mi SSE 8.1 mph - N/A   Mostly Cloudy
8:15 PM 15.8 °F 4.2 °F 14.0 °F 93% 29.98 in 10.0 mi South 9.2 mph - N/A   Overcast
8:35 PM 17.6 °F 7.3 °F 14.0 °F 86% 29.97 in 10.0 mi SSE 8.1 mph - N/A   Overcast
8:55 PM 17.6 °F 5.0 °F 15.8 °F 93% 29.98 in 10.0 mi SSE 11.5 mph - N/A   Mostly Cloudy
9:15 PM 17.6 °F 7.3 °F 14.0 °F 86% 29.97 in 10.0 mi SSE 8.1 mph - N/A   Mostly Cloudy
9:35 PM 14.0 °F 2.0 °F 12.2 °F 93% 29.94 in 10.0 mi SE 9.2 mph - N/A   Partly Cloudy
9:55 PM 15.8 °F 5.1 °F 14.0 °F 93% 29.94 in 10.0 mi SSE 8.1 mph - N/A   Clear
10:15 PM 15.8 °F 4.2 °F 14.0 °F 93% 29.92 in 10.0 mi SSE 9.2 mph - N/A   Clear
10:35 PM 15.8 °F 2.1 °F 14.0 °F 93% 29.90 in 10.0 mi SSE 12.7 mph - N/A   Clear
10:55 PM 17.6 °F 5.0 °F 14.0 °F 86% 29.89 in 10.0 mi SE 11.5 mph - N/A   Clear
11:15 PM 15.8 °F 3.4 °F 14.0 °F 93% 29.87 in 10.0 mi SE 10.4 mph - N/A   Clear
11:35 PM 15.8 °F 2.7 °F 14.0 °F 93% 29.85 in 10.0 mi SSE 11.5 mph - N/A   Clear
11:55 PM 17.6 °F 5.7 °F 14.0 °F 86% 29.84 in 10.0 mi SSE 10.4 mph - N/A   Clear